createdAt,value
2018-11-07T00:00:49.995Z,89.00
2018-11-07T00:03:18.719Z,89.30
2018-11-07T00:05:47.400Z,89.40
2018-11-07T00:08:16.214Z,89.90
2018-11-07T00:10:44.734Z,89.70
2018-11-07T00:13:13.208Z,89.60
2018-11-07T00:15:41.665Z,88.70
2018-11-07T00:18:10.132Z,89.20
2018-11-07T00:20:38.621Z,89.80
2018-11-07T00:23:07.028Z,89.50
2018-11-07T00:25:35.432Z,89.30
2018-11-07T00:28:03.859Z,89.20
2018-11-07T00:30:32.254Z,89.00
2018-11-07T00:33:00.723Z,89.30
2018-11-07T00:35:29.146Z,89.10
2018-11-07T00:37:57.526Z,89.10
2018-11-07T00:40:25.916Z,88.60
2018-11-07T00:42:54.364Z,88.30
2018-11-07T00:45:22.858Z,88.00
2018-11-07T00:47:51.276Z,89.00
2018-11-07T00:50:19.978Z,88.90
2018-11-07T00:52:48.405Z,89.10
2018-11-07T00:55:16.905Z,89.10
2018-11-07T00:57:45.320Z,89.10
2018-11-07T01:00:16.253Z,89.10
2018-11-07T01:02:45.401Z,89.00
2018-11-07T01:05:14.162Z,88.80
2018-11-07T01:07:43.667Z,88.70
2018-11-07T01:10:12.521Z,89.30
2018-11-07T01:12:41.776Z,88.70
2018-11-07T01:15:11.047Z,88.80
2018-11-07T01:17:39.428Z,88.70
2018-11-07T01:20:09.307Z,89.20
2018-11-07T01:22:37.749Z,89.40
2018-11-07T01:25:07.541Z,89.20
2018-11-07T01:27:35.973Z,88.80
2018-11-07T01:30:05.346Z,88.60
2018-11-07T01:32:33.777Z,88.60
2018-11-07T01:35:02.147Z,89.90
2018-11-07T01:37:30.573Z,89.30
2018-11-07T01:39:58.911Z,89.40
2018-11-07T01:42:27.304Z,89.10
2018-11-07T01:44:55.740Z,88.70
2018-11-07T01:47:24.213Z,89.30
2018-11-07T01:49:52.583Z,89.20
2018-11-07T01:52:20.914Z,88.50
2018-11-07T01:54:49.413Z,89.00
2018-11-07T01:57:17.800Z,90.00
2018-11-07T01:59:46.192Z,90.00
2018-11-07T02:02:14.588Z,90.00
2018-11-07T02:04:42.990Z,89.90
2018-11-07T02:07:11.442Z,89.40
2018-11-07T02:09:39.824Z,90.00
2018-11-07T02:12:08.230Z,89.30
2018-11-07T02:14:36.626Z,89.20
2018-11-07T02:17:05.082Z,89.60
2018-11-07T02:19:33.526Z,89.90
2018-11-07T02:22:02.033Z,89.60
2018-11-07T02:24:30.454Z,89.90
2018-11-07T02:26:58.879Z,90.20
2018-11-07T02:29:27.373Z,89.70
2018-11-07T02:31:55.809Z,89.70
2018-11-07T02:34:24.290Z,89.00
2018-11-07T02:36:52.776Z,89.40
2018-11-07T02:39:21.270Z,89.50
2018-11-07T02:41:49.735Z,90.00
2018-11-07T02:44:18.325Z,90.40
2018-11-07T02:46:46.771Z,90.50
2018-11-07T02:49:15.126Z,90.40
2018-11-07T02:51:43.906Z,90.40
2018-11-07T02:54:12.753Z,90.70
2018-11-07T02:56:41.338Z,90.20
2018-11-07T02:59:09.710Z,90.10
2018-11-07T03:01:38.176Z,90.20
2018-11-07T03:04:06.656Z,90.10
2018-11-07T03:06:35.146Z,90.00
2018-11-07T03:09:05.216Z,89.60
2018-11-07T03:11:33.705Z,89.70
2018-11-07T03:14:02.104Z,90.00
2018-11-07T03:16:30.558Z,90.00
2018-11-07T03:18:58.976Z,89.70
2018-11-07T03:21:27.426Z,89.40
2018-11-07T03:23:55.846Z,89.50
2018-11-07T03:26:24.536Z,89.40
2018-11-07T03:28:53.024Z,89.40
2018-11-07T03:31:21.470Z,89.20
2018-11-07T03:33:49.840Z,89.00
2018-11-07T03:36:18.242Z,89.30
2018-11-07T03:38:46.741Z,89.30
2018-11-07T03:41:15.210Z,89.40
2018-11-07T03:43:43.607Z,89.00
2018-11-07T03:46:12.086Z,88.40
2018-11-07T03:48:41.191Z,89.20
2018-11-07T03:51:09.544Z,88.60
2018-11-07T03:53:37.965Z,88.50
2018-11-07T03:56:06.377Z,88.10
2018-11-07T03:58:34.776Z,89.00
2018-11-07T04:01:03.259Z,88.80
2018-11-07T04:03:31.731Z,90.00
2018-11-07T04:06:03.105Z,90.30
2018-11-07T04:08:31.566Z,90.00
2018-11-07T04:11:00.008Z,89.40
2018-11-07T04:13:28.490Z,89.20
2018-11-07T04:15:56.963Z,89.00
2018-11-07T04:18:25.397Z,89.10
2018-11-07T04:20:53.761Z,89.30
2018-11-07T04:23:22.227Z,88.80
2018-11-07T04:25:50.786Z,89.30
2018-11-07T04:28:19.162Z,89.70
2018-11-07T04:30:47.545Z,89.60
2018-11-07T04:33:15.944Z,89.90
2018-11-07T04:35:44.453Z,90.00
2018-11-07T04:38:12.809Z,89.80
2018-11-07T04:40:41.190Z,89.40
2018-11-07T04:43:09.612Z,89.50
2018-11-07T04:45:38.088Z,89.80
2018-11-07T04:48:06.665Z,89.40
2018-11-07T04:50:35.052Z,89.00
2018-11-07T04:53:03.482Z,88.90
2018-11-07T04:55:31.940Z,89.30
2018-11-07T04:58:00.437Z,89.50
2018-11-07T05:00:30.213Z,89.80
2018-11-07T05:02:58.694Z,89.20
2018-11-07T05:05:27.150Z,89.70
2018-11-07T05:07:55.587Z,89.40
2018-11-07T05:10:24.208Z,89.40
2018-11-07T05:12:52.638Z,90.00
2018-11-07T05:15:21.058Z,89.80
2018-11-07T05:17:49.515Z,89.60
2018-11-07T05:20:18.156Z,89.30
2018-11-07T05:22:46.568Z,89.40
2018-11-07T05:25:14.970Z,90.30
2018-11-07T05:27:43.389Z,90.60
2018-11-07T05:30:12.460Z,90.80
2018-11-07T05:32:41.091Z,91.20
2018-11-07T05:35:09.701Z,90.90
2018-11-07T05:37:38.301Z,90.90
2018-11-07T05:40:06.802Z,91.00
2018-11-07T05:42:35.502Z,91.00
2018-11-07T05:45:03.924Z,90.80
2018-11-07T05:47:32.341Z,90.60
2018-11-07T05:50:00.798Z,90.30
2018-11-07T05:52:29.285Z,90.70
2018-11-07T05:54:57.915Z,90.60
2018-11-07T05:57:26.347Z,90.50
2018-11-07T05:59:55.058Z,90.40
2018-11-07T06:02:23.474Z,90.50
2018-11-07T06:04:51.922Z,90.30
2018-11-07T06:07:20.357Z,90.70
2018-11-07T06:09:48.807Z,90.90
2018-11-07T06:12:17.257Z,90.70
2018-11-07T06:14:45.715Z,90.80
2018-11-07T06:17:14.525Z,90.00
2018-11-07T06:19:42.947Z,90.50
2018-11-07T06:22:11.417Z,90.30
2018-11-07T06:24:39.847Z,89.60
2018-11-07T06:27:08.326Z,89.10
2018-11-07T06:29:36.730Z,88.60
2018-11-07T06:32:05.165Z,89.60
2018-11-07T06:34:33.609Z,90.20
2018-11-07T06:37:02.072Z,90.10
2018-11-07T06:39:30.543Z,89.70
2018-11-07T06:41:59.022Z,89.60
2018-11-07T06:44:27.427Z,89.20
2018-11-07T06:46:56.081Z,88.70
2018-11-07T06:49:24.503Z,90.00
2018-11-07T06:51:52.968Z,89.80
2018-11-07T06:54:21.510Z,88.00
2018-11-07T06:56:49.984Z,88.40
2018-11-07T06:59:18.478Z,88.30
2018-11-07T07:01:46.949Z,89.10
2018-11-07T07:04:15.347Z,88.80
2018-11-07T07:06:43.865Z,88.60
2018-11-07T07:09:12.289Z,88.70
2018-11-07T07:11:41.036Z,87.70
2018-11-07T07:14:09.847Z,87.30
2018-11-07T07:16:38.681Z,87.40
2018-11-07T07:19:07.051Z,88.30
2018-11-07T07:21:35.543Z,88.10
2018-11-07T07:24:04.323Z,88.60
2018-11-07T07:26:32.818Z,88.80
2018-11-07T07:29:01.315Z,88.80
2018-11-07T07:31:29.833Z,88.60
2018-11-07T07:33:58.291Z,88.70
2018-11-07T07:36:26.830Z,89.00
2018-11-07T07:38:55.292Z,88.70
2018-11-07T07:41:23.695Z,89.70
2018-11-07T07:43:52.143Z,89.50
2018-11-07T07:46:20.612Z,89.80
2018-11-07T07:48:49.081Z,89.90
2018-11-07T07:51:17.541Z,89.50
2018-11-07T07:53:45.931Z,89.10
2018-11-07T07:56:14.340Z,89.20
2018-11-07T07:58:42.796Z,89.70
2018-11-07T08:01:11.266Z,90.00
2018-11-07T08:03:39.716Z,89.40
2018-11-07T08:06:08.163Z,89.70
2018-11-07T08:08:36.581Z,89.90
2018-11-07T08:11:05.013Z,89.80
2018-11-07T08:13:33.428Z,89.40
2018-11-07T08:16:01.985Z,89.10
2018-11-07T08:18:30.384Z,89.20
2018-11-07T08:20:58.799Z,89.30
2018-11-07T08:23:27.322Z,89.00
2018-11-07T08:25:55.829Z,89.40
2018-11-07T08:28:24.307Z,89.00
2018-11-07T08:30:52.792Z,89.40
2018-11-07T08:33:21.398Z,89.30
2018-11-07T08:35:49.867Z,89.60
2018-11-07T08:38:18.336Z,89.50
2018-11-07T08:40:46.723Z,89.40
2018-11-07T08:43:15.117Z,90.20
2018-11-07T08:45:43.506Z,90.30
2018-11-07T08:48:11.986Z,90.20
2018-11-07T08:50:40.534Z,90.30
2018-11-07T08:53:08.989Z,90.00
2018-11-07T08:55:37.465Z,90.50
2018-11-07T08:58:05.933Z,90.30
2018-11-07T09:00:34.396Z,90.40
2018-11-07T09:03:02.873Z,90.40
2018-11-07T09:05:31.268Z,90.40
2018-11-07T09:07:59.744Z,90.10
2018-11-07T09:10:28.247Z,89.40
2018-11-07T09:12:56.618Z,88.80
2018-11-07T09:15:25.059Z,87.20
2018-11-07T09:17:53.496Z,87.10
2018-11-07T09:20:23.110Z,87.90
2018-11-07T09:22:51.520Z,87.70
2018-11-07T09:25:20.089Z,87.80
2018-11-07T09:27:48.720Z,86.20
2018-11-07T09:30:21.685Z,84.70
2018-11-07T09:32:50.472Z,85.50
2018-11-07T09:35:19.544Z,84.30
2018-11-07T09:37:48.809Z,86.60
2018-11-07T09:40:18.530Z,86.90
2018-11-07T09:42:48.077Z,83.70
2018-11-07T09:45:17.761Z,86.20
2018-11-07T09:47:46.739Z,86.20
2018-11-07T09:50:16.071Z,84.00
2018-11-07T09:52:44.769Z,85.70
2018-11-07T09:55:14.433Z,85.90
2018-11-07T09:57:42.977Z,86.50
2018-11-07T10:00:13.897Z,87.20
2018-11-07T10:02:42.777Z,87.20
2018-11-07T10:05:11.878Z,86.60
2018-11-07T10:07:41.174Z,84.00
2018-11-07T10:10:11.692Z,85.90
2018-11-07T10:12:40.712Z,86.50
2018-11-07T10:15:10.254Z,84.30
2018-11-07T10:17:38.814Z,81.70
2018-11-07T10:20:11.399Z,84.50
2018-11-07T10:22:40.010Z,82.40
2018-11-07T10:25:09.165Z,82.40
2018-11-07T10:27:37.949Z,82.50
2018-11-07T10:30:08.145Z,83.40
2018-11-07T10:32:36.324Z,82.40
2018-11-07T10:35:05.845Z,79.50
2018-11-07T10:37:34.328Z,81.20
2018-11-07T10:40:02.847Z,79.70
2018-11-07T10:42:31.298Z,80.20
2018-11-07T10:44:59.786Z,81.10
2018-11-07T10:47:28.239Z,82.20
2018-11-07T10:49:56.701Z,81.50
2018-11-07T10:52:25.152Z,81.70
2018-11-07T10:54:53.582Z,81.20
2018-11-07T10:57:22.022Z,81.20
2018-11-07T10:59:50.451Z,80.40
2018-11-07T11:02:24.141Z,81.60
2018-11-07T11:04:52.566Z,82.20
2018-11-07T11:07:21.238Z,81.50
2018-11-07T11:09:49.743Z,78.30
2018-11-07T11:12:18.123Z,80.20
2018-11-07T11:14:46.529Z,81.30
2018-11-07T11:17:15.003Z,81.50
2018-11-07T11:19:43.521Z,81.60
2018-11-07T11:22:12.035Z,82.20
2018-11-07T11:24:40.398Z,79.20
2018-11-07T11:27:08.961Z,81.10
2018-11-07T11:29:37.587Z,81.10
2018-11-07T11:32:06.407Z,79.30
2018-11-07T11:34:34.954Z,79.50
2018-11-07T11:37:03.477Z,79.60
2018-11-07T11:39:31.855Z,80.80
2018-11-07T11:42:00.341Z,82.00
2018-11-07T11:44:28.711Z,81.40
2018-11-07T11:46:57.154Z,80.00
2018-11-07T11:49:25.588Z,80.00
2018-11-07T11:51:54.075Z,80.00
2018-11-07T11:54:22.530Z,81.30
2018-11-07T11:56:50.995Z,81.40
2018-11-07T11:59:19.524Z,80.30
2018-11-07T12:01:47.971Z,79.90
2018-11-07T12:04:16.452Z,78.20
2018-11-07T12:06:44.818Z,79.30
2018-11-07T12:09:13.229Z,79.40
2018-11-07T12:11:41.717Z,79.20
2018-11-07T12:14:10.271Z,80.20
2018-11-07T12:16:38.672Z,80.30
2018-11-07T12:19:07.102Z,79.70
2018-11-07T12:21:35.489Z,80.20
2018-11-07T12:24:03.936Z,79.90
2018-11-07T12:26:32.511Z,79.50
2018-11-07T12:29:00.989Z,79.00
2018-11-07T12:31:29.455Z,79.00
2018-11-07T12:33:57.907Z,77.20
2018-11-07T12:36:26.457Z,77.70
2018-11-07T12:38:54.943Z,76.80
2018-11-07T12:41:23.431Z,76.60
2018-11-07T12:43:51.888Z,75.90
2018-11-07T12:46:20.347Z,76.10
2018-11-07T12:48:49.062Z,76.70
2018-11-07T12:51:17.486Z,76.30
2018-11-07T12:53:45.912Z,77.20
2018-11-07T12:56:14.356Z,77.10
2018-11-07T12:58:42.823Z,76.50
2018-11-07T13:01:11.220Z,76.10
2018-11-07T13:03:39.676Z,76.50
2018-11-07T13:06:08.037Z,76.70
2018-11-07T13:08:36.769Z,76.70
2018-11-07T13:11:05.883Z,76.20
2018-11-07T13:13:34.447Z,75.10
2018-11-07T13:16:02.809Z,76.40
2018-11-07T13:18:31.330Z,75.80
2018-11-07T13:21:00.096Z,75.00
2018-11-07T13:23:28.548Z,76.10
2018-11-07T13:25:56.989Z,76.30
2018-11-07T13:28:25.414Z,75.10
2018-11-07T13:30:53.916Z,75.10
2018-11-07T13:33:22.432Z,75.40
2018-11-07T13:35:50.926Z,74.70
2018-11-07T13:38:19.767Z,75.30
2018-11-07T13:40:48.198Z,75.40
2018-11-07T13:43:16.884Z,75.10
2018-11-07T13:45:45.432Z,75.30
2018-11-07T13:48:13.955Z,76.10
2018-11-07T13:50:42.435Z,76.00
2018-11-07T13:53:10.879Z,76.40
2018-11-07T13:55:39.463Z,76.60
2018-11-07T13:58:07.943Z,77.20
2018-11-07T14:00:36.430Z,77.30
2018-11-07T14:03:05.202Z,77.50
2018-11-07T14:05:33.746Z,77.80
2018-11-07T14:08:02.305Z,78.30
2018-11-07T14:10:30.758Z,78.20
2018-11-07T14:12:59.233Z,78.20
2018-11-07T14:15:27.656Z,77.70
2018-11-07T14:17:56.174Z,77.50
2018-11-07T14:20:24.626Z,78.20
2018-11-07T14:22:53.120Z,78.20
2018-11-07T14:25:21.576Z,77.80
2018-11-07T14:27:50.134Z,78.00
2018-11-07T14:30:19.780Z,78.10
2018-11-07T14:32:54.718Z,77.90
2018-11-07T14:35:23.545Z,78.40
2018-11-07T14:37:52.621Z,78.60
2018-11-07T14:40:21.482Z,78.40
2018-11-07T14:42:49.991Z,78.60
2018-11-07T14:45:18.382Z,79.00
2018-11-07T14:47:46.935Z,78.90
2018-11-07T14:50:15.494Z,79.10
2018-11-07T14:52:43.846Z,79.30
2018-11-07T14:55:12.782Z,79.40
2018-11-07T14:57:41.493Z,79.50
2018-11-07T15:00:12.064Z,79.80
2018-11-07T15:02:41.306Z,80.00
2018-11-07T15:05:11.173Z,80.20
2018-11-07T15:07:40.323Z,80.30
2018-11-07T15:10:10.675Z,80.30
2018-11-07T15:12:39.188Z,80.60
2018-11-07T15:15:09.966Z,81.00
2018-11-07T15:17:38.430Z,81.70
2018-11-07T15:20:08.094Z,81.90
2018-11-07T15:22:36.544Z,81.40
2018-11-07T15:25:05.890Z,81.50
2018-11-07T15:27:34.443Z,81.20
2018-11-07T15:30:02.974Z,82.20
2018-11-07T15:32:31.441Z,83.30
2018-11-07T15:34:59.809Z,83.10
2018-11-07T15:37:28.264Z,83.50
2018-11-07T15:39:56.733Z,83.90
2018-11-07T15:42:25.226Z,84.00
2018-11-07T15:44:53.642Z,84.00
2018-11-07T15:47:22.102Z,84.40
2018-11-07T15:49:55.986Z,84.90
2018-11-07T15:52:24.459Z,85.10
2018-11-07T15:54:53.078Z,85.40
2018-11-07T15:57:21.820Z,85.70
2018-11-07T15:59:50.324Z,85.80
2018-11-07T16:02:18.931Z,85.80
2018-11-07T16:04:47.348Z,86.20
2018-11-07T16:07:15.766Z,86.40
2018-11-07T16:09:44.120Z,86.60
2018-11-07T16:12:12.486Z,86.30
2018-11-07T16:14:40.860Z,87.40
2018-11-07T16:17:09.237Z,86.60
2018-11-07T16:19:37.639Z,86.60
2018-11-07T16:22:06.358Z,86.90
2018-11-07T16:24:34.767Z,86.90
2018-11-07T16:27:03.210Z,87.70
2018-11-07T16:29:31.683Z,87.10
2018-11-07T16:32:00.109Z,87.50
2018-11-07T16:34:28.599Z,87.30
2018-11-07T16:36:57.084Z,87.60
2018-11-07T16:39:25.708Z,87.90
2018-11-07T16:41:54.378Z,87.90
2018-11-07T16:44:22.849Z,88.00
2018-11-07T16:46:51.306Z,87.70
2018-11-07T16:49:19.868Z,88.20
2018-11-07T16:51:48.268Z,88.30
2018-11-07T16:54:20.216Z,88.90
2018-11-07T16:56:48.914Z,89.00
2018-11-07T16:59:17.595Z,89.70
2018-11-07T17:01:46.060Z,89.90
2018-11-07T17:04:14.643Z,89.80
2018-11-07T17:06:43.302Z,90.30
2018-11-07T17:09:11.993Z,90.60
2018-11-07T17:11:41.076Z,90.40
2018-11-07T17:14:09.753Z,90.30
2018-11-07T17:16:38.144Z,90.00
2018-11-07T17:19:06.592Z,89.50
2018-11-07T17:21:36.721Z,89.40
2018-11-07T17:24:05.486Z,89.20
2018-11-07T17:26:34.118Z,89.30
2018-11-07T17:29:02.690Z,89.70
2018-11-07T17:31:31.110Z,90.00
2018-11-07T17:33:59.725Z,90.30
2018-11-07T17:36:28.080Z,89.60
2018-11-07T17:38:56.466Z,90.10
2018-11-07T17:41:24.906Z,90.00
2018-11-07T17:43:53.344Z,90.10
2018-11-07T17:46:21.856Z,89.90
2018-11-07T17:48:50.268Z,89.60
2018-11-07T17:51:18.722Z,89.40
2018-11-07T17:53:47.213Z,89.20
2018-11-07T17:56:15.701Z,89.20
2018-11-07T17:58:44.107Z,89.00
2018-11-07T18:01:12.574Z,89.00
2018-11-07T18:03:41.269Z,89.50
2018-11-07T18:06:09.862Z,89.50
2018-11-07T18:08:38.314Z,89.20
2018-11-07T18:11:06.740Z,90.20
2018-11-07T18:13:36.108Z,90.00
2018-11-07T18:16:05.072Z,90.00
2018-11-07T18:18:33.508Z,89.90
2018-11-07T18:21:02.030Z,90.00
2018-11-07T18:23:30.482Z,90.10
2018-11-07T18:25:58.872Z,90.00
2018-11-07T18:28:27.380Z,90.00
2018-11-07T18:30:55.865Z,89.80
2018-11-07T18:33:24.306Z,89.70
2018-11-07T18:35:52.780Z,89.60
2018-11-07T18:38:21.388Z,89.60
2018-11-07T18:40:49.875Z,90.40
2018-11-07T18:43:18.422Z,90.60
2018-11-07T18:45:47.002Z,90.90
2018-11-07T18:48:15.445Z,91.10
2018-11-07T18:50:43.958Z,91.40
2018-11-07T18:53:12.528Z,91.30
2018-11-07T18:55:40.929Z,91.00
2018-11-07T18:58:09.574Z,90.70
2018-11-07T19:00:38.072Z,90.50
2018-11-07T19:03:06.721Z,90.30
2018-11-07T19:05:35.122Z,90.60
2018-11-07T19:08:03.559Z,90.90
2018-11-07T19:10:31.937Z,90.90
2018-11-07T19:13:00.343Z,91.10
2018-11-07T19:15:28.817Z,91.20
2018-11-07T19:17:57.266Z,91.20
2018-11-07T19:20:25.703Z,91.10
2018-11-07T19:22:54.302Z,90.90
2018-11-07T19:25:22.843Z,91.10
2018-11-07T19:27:51.292Z,90.90
2018-11-07T19:30:21.092Z,91.00
2018-11-07T19:32:50.652Z,91.10
2018-11-07T19:35:19.670Z,91.00
2018-11-07T19:37:48.467Z,91.00
2018-11-07T19:40:18.454Z,91.40
2018-11-07T19:42:47.049Z,91.70
2018-11-07T19:45:16.805Z,92.20
2018-11-07T19:47:45.249Z,92.20
2018-11-07T19:50:15.000Z,92.40
2018-11-07T19:52:43.954Z,92.10
2018-11-07T19:55:14.889Z,92.00
2018-11-07T19:57:45.349Z,92.20
2018-11-07T20:00:15.382Z,92.30
2018-11-07T20:02:45.027Z,92.40
2018-11-07T20:05:13.525Z,91.90
2018-11-07T20:07:41.938Z,91.70
2018-11-07T20:10:13.033Z,91.80
2018-11-07T20:12:41.659Z,92.00
2018-11-07T20:15:11.743Z,91.80
2018-11-07T20:17:40.328Z,91.70
2018-11-07T20:20:09.476Z,91.40
2018-11-07T20:22:37.980Z,91.30
2018-11-07T20:25:07.403Z,91.10
2018-11-07T20:27:35.872Z,91.30
2018-11-07T20:30:05.228Z,91.20
2018-11-07T20:32:33.694Z,91.70
2018-11-07T20:35:02.508Z,91.60
2018-11-07T20:37:30.931Z,91.90
2018-11-07T20:39:59.345Z,92.20
2018-11-07T20:42:27.715Z,91.70
2018-11-07T20:44:56.180Z,91.80
2018-11-07T20:47:24.592Z,91.30
2018-11-07T20:49:53.004Z,91.40
2018-11-07T20:52:21.438Z,91.10
2018-11-07T20:54:49.895Z,91.60
2018-11-07T20:57:18.508Z,91.30
2018-11-07T20:59:46.898Z,91.10
2018-11-07T21:02:15.325Z,91.00
2018-11-07T21:04:43.826Z,91.60
2018-11-07T21:07:12.243Z,91.50
2018-11-07T21:09:40.656Z,91.40
2018-11-07T21:12:09.011Z,91.00
2018-11-07T21:14:37.504Z,91.20
2018-11-07T21:17:06.498Z,90.90
2018-11-07T21:19:35.015Z,90.90
2018-11-07T21:22:03.526Z,91.10
2018-11-07T21:24:31.960Z,91.40
2018-11-07T21:27:00.436Z,91.20
2018-11-07T21:29:29.005Z,91.20
2018-11-07T21:31:57.529Z,91.20
2018-11-07T21:34:25.923Z,91.20
2018-11-07T21:36:54.348Z,91.30
2018-11-07T21:39:22.812Z,91.20
2018-11-07T21:41:51.234Z,91.60
2018-11-07T21:44:19.682Z,91.40
2018-11-07T21:46:48.153Z,91.40
2018-11-07T21:49:16.556Z,91.40
2018-11-07T21:51:44.942Z,91.40
2018-11-07T21:54:13.302Z,91.90
2018-11-07T21:56:41.723Z,92.20
2018-11-07T21:59:10.193Z,92.30
2018-11-07T22:01:38.691Z,92.40
2018-11-07T22:04:07.440Z,92.20
2018-11-07T22:06:35.848Z,92.00
2018-11-07T22:09:06.603Z,92.20
2018-11-07T22:11:35.002Z,92.10
2018-11-07T22:14:03.765Z,91.70
2018-11-07T22:16:32.169Z,91.90
2018-11-07T22:19:00.716Z,91.60
2018-11-07T22:21:29.116Z,91.60
2018-11-07T22:23:57.580Z,92.10
2018-11-07T22:26:26.450Z,92.40
2018-11-07T22:28:54.862Z,92.80
2018-11-07T22:31:23.321Z,92.90
2018-11-07T22:33:51.961Z,92.40
2018-11-07T22:36:20.375Z,92.30
2018-11-07T22:38:48.906Z,92.00
2018-11-07T22:41:17.292Z,92.40
2018-11-07T22:43:45.743Z,91.90
2018-11-07T22:46:14.232Z,92.30
2018-11-07T22:48:42.680Z,91.80
2018-11-07T22:51:11.178Z,91.80
2018-11-07T22:53:39.642Z,91.90
2018-11-07T22:56:08.130Z,91.90
2018-11-07T22:58:36.510Z,92.30
2018-11-07T23:01:10.846Z,92.40
2018-11-07T23:03:39.414Z,92.30
2018-11-07T23:06:08.008Z,92.50
2018-11-07T23:08:36.437Z,92.70
2018-11-07T23:11:04.881Z,93.00
2018-11-07T23:13:33.354Z,92.80
2018-11-07T23:16:01.771Z,92.50
2018-11-07T23:18:30.185Z,92.50
2018-11-07T23:20:58.790Z,92.60
2018-11-07T23:23:27.252Z,92.50
2018-11-07T23:25:55.711Z,92.30
2018-11-07T23:28:25.077Z,92.20
2018-11-07T23:30:53.519Z,92.10
2018-11-07T23:33:22.013Z,92.00
2018-11-07T23:35:50.448Z,92.00
2018-11-07T23:38:18.910Z,91.80
2018-11-07T23:40:47.362Z,92.00
2018-11-07T23:43:15.739Z,92.00
2018-11-07T23:45:44.222Z,92.00
2018-11-07T23:48:12.747Z,92.10
2018-11-07T23:50:41.213Z,92.10
2018-11-07T23:53:09.749Z,91.90
2018-11-07T23:55:38.195Z,91.90
2018-11-07T23:58:06.615Z,91.60
